createdAt,value
2019-05-21T00:01:34.792Z,12.92
2019-05-21T00:06:41.075Z,12.91
2019-05-21T00:11:46.380Z,12.91
2019-05-21T00:16:52.038Z,12.95
2019-05-21T00:21:57.349Z,12.96
2019-05-21T00:27:02.640Z,12.99
2019-05-21T00:32:43.777Z,13.01
2019-05-21T00:38:25.015Z,13.00
2019-05-21T00:43:41.036Z,12.94
2019-05-21T00:48:46.384Z,13.02
2019-05-21T00:53:51.659Z,12.99
2019-05-21T00:58:57.196Z,12.94
2019-05-21T01:04:02.707Z,12.96
2019-05-21T01:09:09.098Z,13.02
2019-05-21T01:14:14.607Z,12.96
2019-05-21T01:19:19.853Z,12.92
2019-05-21T01:24:25.145Z,12.78
2019-05-21T01:29:30.432Z,12.80
2019-05-21T01:34:35.860Z,12.78
2019-05-21T01:39:42.444Z,12.78
2019-05-21T01:44:47.693Z,12.82
2019-05-21T01:49:52.982Z,12.82
2019-05-21T01:54:58.319Z,12.78
2019-05-21T02:00:03.815Z,12.70
2019-05-21T02:05:09.142Z,12.65
2019-05-21T02:10:14.676Z,12.57
2019-05-21T02:15:19.922Z,12.55
2019-05-21T02:20:25.506Z,12.60
2019-05-21T02:30:30.000Z,12.48
2019-05-21T02:35:52.841Z,12.35
2019-05-21T02:40:42.934Z,12.32
2019-05-21T02:45:49.148Z,12.24
2019-05-21T02:50:54.511Z,12.21
2019-05-21T02:55:59.992Z,12.14
2019-05-21T03:01:21.801Z,12.21
2019-05-21T03:06:27.061Z,12.12
2019-05-21T03:11:32.284Z,12.01
2019-05-21T03:16:38.592Z,11.97
2019-05-21T03:21:43.930Z,11.91
2019-05-21T03:26:49.195Z,11.95
2019-05-21T03:31:54.474Z,11.84
2019-05-21T03:37:00.092Z,11.86
2019-05-21T03:42:05.347Z,11.83
2019-05-21T03:47:11.784Z,11.84
2019-05-21T03:52:16.991Z,11.85
2019-05-21T03:57:22.278Z,11.87
2019-05-21T04:02:27.498Z,11.84
2019-05-21T04:07:32.834Z,11.80
2019-05-21T04:12:38.106Z,11.84
2019-05-21T04:18:07.025Z,11.82
2019-05-21T04:23:12.457Z,11.75
2019-05-21T04:28:17.681Z,11.78
2019-05-21T04:33:23.040Z,11.66
2019-05-21T04:38:28.740Z,11.68
2019-05-21T04:43:33.975Z,11.69
2019-05-21T04:48:39.585Z,11.68
2019-05-21T04:53:44.945Z,11.59
2019-05-21T04:58:50.178Z,11.70
2019-05-21T05:03:55.449Z,11.56
2019-05-21T05:09:00.692Z,11.56
2019-05-21T05:14:07.689Z,11.65
2019-05-21T05:19:12.932Z,11.61
2019-05-21T05:24:18.474Z,11.67
2019-05-21T05:29:23.921Z,11.65
2019-05-21T05:34:29.290Z,11.67
2019-05-21T05:39:34.877Z,11.67
2019-05-21T05:44:40.187Z,11.67
2019-05-21T05:49:48.911Z,11.64
2019-05-21T05:54:54.234Z,11.60
2019-05-21T05:59:59.523Z,11.61
2019-05-21T06:05:05.417Z,11.58
2019-05-21T06:10:10.978Z,11.67
2019-05-21T06:15:16.653Z,11.63
2019-05-21T06:20:22.243Z,11.70
2019-05-21T06:25:27.495Z,11.78
2019-05-21T06:30:32.756Z,11.82
2019-05-21T06:35:37.994Z,11.79
2019-05-21T06:40:43.310Z,11.96
2019-05-21T06:45:49.617Z,11.88
2019-05-21T06:50:54.915Z,11.88
2019-05-21T06:56:00.230Z,11.92
2019-05-21T07:01:05.456Z,11.94
2019-05-21T07:06:10.693Z,12.01
2019-05-21T07:11:15.909Z,11.99
2019-05-21T07:16:21.141Z,11.99
2019-05-21T07:21:26.390Z,12.09
2019-05-21T07:26:32.299Z,12.19
2019-05-21T07:31:37.977Z,12.37
2019-05-21T07:36:43.289Z,12.21
2019-05-21T07:41:48.665Z,12.22
2019-05-21T07:46:53.972Z,12.35
2019-05-21T07:51:59.205Z,12.29
2019-05-21T07:57:05.233Z,12.45
2019-05-21T08:02:10.459Z,12.35
2019-05-21T08:07:15.709Z,12.37
2019-05-21T08:12:37.349Z,12.42
2019-05-21T08:17:27.900Z,12.42
2019-05-21T08:22:33.627Z,12.35
2019-05-21T08:27:38.857Z,12.38
2019-05-21T08:32:44.477Z,12.32
2019-05-21T08:37:49.969Z,12.37
2019-05-21T08:42:55.235Z,12.37
2019-05-21T08:48:00.551Z,12.49
2019-05-21T08:53:06.006Z,12.50
2019-05-21T08:58:11.610Z,12.65
2019-05-21T09:03:16.834Z,12.51
2019-05-21T09:08:22.127Z,12.57
2019-05-21T09:13:27.708Z,12.50
2019-05-21T09:18:33.019Z,12.48
2019-05-21T09:23:39.396Z,12.53
2019-05-21T09:28:45.008Z,12.47
2019-05-21T09:33:50.261Z,12.45
2019-05-21T09:38:55.542Z,12.54
2019-05-21T09:44:00.866Z,12.66
2019-05-21T09:49:06.149Z,12.60
2019-05-21T09:54:11.645Z,12.62
2019-05-21T09:59:39.258Z,12.61
2019-05-21T10:04:44.832Z,12.56
2019-05-21T10:09:50.052Z,12.45
2019-05-21T10:14:55.552Z,12.34
2019-05-21T10:20:00.769Z,12.29
2019-05-21T10:25:06.643Z,12.24
2019-05-21T10:30:12.743Z,12.18
2019-05-21T10:35:18.006Z,12.11
2019-05-21T10:40:23.277Z,12.12
2019-05-21T10:45:28.589Z,12.24
2019-05-21T10:50:33.927Z,12.20
2019-05-21T10:55:39.251Z,12.25
2019-05-21T11:00:46.270Z,12.31
2019-05-21T11:06:09.027Z,12.16
2019-05-21T11:11:01.127Z,12.07
2019-05-21T11:16:06.703Z,12.13
2019-05-21T11:21:12.076Z,12.18
2019-05-21T11:26:17.341Z,12.05
2019-05-21T11:31:22.656Z,12.00
2019-05-21T11:36:28.227Z,11.96
2019-05-21T11:41:33.955Z,11.90
2019-05-21T11:46:39.205Z,11.87
2019-05-21T11:51:44.725Z,11.76
2019-05-21T11:56:50.240Z,11.72
2019-05-21T12:01:55.538Z,11.77
2019-05-21T12:07:03.228Z,11.78
2019-05-21T12:12:07.852Z,11.93
2019-05-21T12:17:13.121Z,11.84
2019-05-21T12:22:18.377Z,11.92
2019-05-21T12:27:24.440Z,12.03
2019-05-21T12:32:29.789Z,11.99
2019-05-21T12:37:35.054Z,12.01
2019-05-21T12:42:40.363Z,12.12
2019-05-21T12:47:45.630Z,12.04
2019-05-21T12:52:51.014Z,11.95
2019-05-21T12:57:56.366Z,11.92
2019-05-21T13:03:02.970Z,12.05
2019-05-21T13:08:08.288Z,12.11
2019-05-21T13:13:13.565Z,12.02
2019-05-21T13:18:18.836Z,12.11
2019-05-21T13:23:24.099Z,12.06
2019-05-21T13:28:29.397Z,12.24
2019-05-21T13:33:34.673Z,12.11
2019-05-21T13:38:40.061Z,12.33
2019-05-21T13:43:45.535Z,12.20
2019-05-21T13:48:52.147Z,12.23
2019-05-21T13:53:57.501Z,12.23
2019-05-21T13:59:02.809Z,12.27
2019-05-21T14:04:08.624Z,12.25
2019-05-21T14:09:14.027Z,12.18
2019-05-21T14:14:19.639Z,12.18
2019-05-21T14:19:24.962Z,12.33
2019-05-21T14:24:30.273Z,12.18
2019-05-21T14:29:35.954Z,12.24
2019-05-21T14:34:41.060Z,12.30
2019-05-21T14:39:47.101Z,12.17
2019-05-21T14:44:53.235Z,12.21
2019-05-21T14:49:58.596Z,12.26
2019-05-21T14:55:04.445Z,12.24
2019-05-21T15:00:20.213Z,12.18
2019-05-21T15:05:26.332Z,12.17
2019-05-21T15:10:47.316Z,12.17
2019-05-21T15:15:40.433Z,12.25
2019-05-21T15:21:04.142Z,12.18
2019-05-21T15:26:09.716Z,12.11
2019-05-21T15:31:14.912Z,12.03
2019-05-21T15:36:20.590Z,12.12
2019-05-21T15:41:25.906Z,12.07
2019-05-21T15:46:47.233Z,12.04
2019-05-21T15:51:38.699Z,11.96
2019-05-21T15:56:43.955Z,11.98
2019-05-21T16:01:49.371Z,11.94
2019-05-21T16:06:54.605Z,11.88
2019-05-21T16:12:00.131Z,11.95
2019-05-21T16:17:06.116Z,11.92
2019-05-21T16:22:11.412Z,11.86
2019-05-21T16:27:19.461Z,12.01
2019-05-21T16:32:25.244Z,11.94
2019-05-21T16:37:31.648Z,12.06
2019-05-21T16:42:37.283Z,11.94
2019-05-21T16:47:46.202Z,11.87
2019-05-21T16:52:50.681Z,11.93
2019-05-21T16:57:56.820Z,11.92
2019-05-21T17:03:02.374Z,11.97
2019-05-21T17:08:08.052Z,11.88
2019-05-21T17:13:13.855Z,11.95
2019-05-21T17:18:19.517Z,11.93
2019-05-21T17:23:24.747Z,11.92
2019-05-21T17:28:30.449Z,11.89
2019-05-21T17:33:36.024Z,11.90
2019-05-21T17:38:41.975Z,11.97
2019-05-21T17:43:47.640Z,11.91
2019-05-21T17:48:53.175Z,11.93
2019-05-21T17:53:59.237Z,11.99
2019-05-21T17:59:04.559Z,12.06
2019-05-21T18:04:10.099Z,12.09
2019-05-21T18:09:17.007Z,12.00
2019-05-21T18:14:23.967Z,12.01
2019-05-21T18:19:30.396Z,11.97
2019-05-21T18:24:35.847Z,11.92
2019-05-21T18:29:41.276Z,12.05
2019-05-21T18:34:46.584Z,11.93
2019-05-21T18:39:54.340Z,11.95
2019-05-21T18:44:59.882Z,11.96
2019-05-21T18:50:05.773Z,12.01
2019-05-21T18:55:12.253Z,11.95
2019-05-21T19:00:20.240Z,11.93
2019-05-21T19:05:25.741Z,11.97
2019-05-21T19:10:31.680Z,11.94
2019-05-21T19:15:38.006Z,11.95
2019-05-21T19:20:44.731Z,11.94
2019-05-21T19:25:50.974Z,12.03
2019-05-21T19:30:58.306Z,11.96
2019-05-21T19:36:03.633Z,11.98
2019-05-21T19:41:08.961Z,11.98
2019-05-21T19:46:14.676Z,12.01
2019-05-21T19:51:20.094Z,11.98
2019-05-21T19:56:25.695Z,12.04
2019-05-21T20:01:32.006Z,11.96
2019-05-21T20:06:39.022Z,12.06
2019-05-21T20:11:44.741Z,11.97
2019-05-21T20:16:51.114Z,11.97
2019-05-21T20:21:58.236Z,12.01
2019-05-21T20:27:05.631Z,11.96
2019-05-21T20:32:16.210Z,11.99
2019-05-21T20:37:26.517Z,12.02
2019-05-21T20:42:32.622Z,11.95
2019-05-21T20:47:38.614Z,11.94
2019-05-21T20:52:45.004Z,11.94
2019-05-21T20:57:50.787Z,11.92
2019-05-21T21:02:57.369Z,11.80
2019-05-21T21:08:03.621Z,11.89
2019-05-21T21:13:11.472Z,11.83
2019-05-21T21:18:18.372Z,11.87
2019-05-21T21:23:25.680Z,11.84
2019-05-21T21:28:31.773Z,11.91
2019-05-21T21:33:38.173Z,11.91
2019-05-21T21:38:44.843Z,11.95
2019-05-21T21:43:50.293Z,11.89
2019-05-21T21:48:56.036Z,11.87
2019-05-21T21:54:02.624Z,11.85
2019-05-21T21:59:08.379Z,11.84
2019-05-21T22:04:16.510Z,11.85
2019-05-21T22:09:33.672Z,11.83
2019-05-21T22:14:50.430Z,11.91
2019-05-21T22:19:51.715Z,11.80
2019-05-21T22:24:57.321Z,11.87
2019-05-21T22:30:02.734Z,11.90
2019-05-21T22:35:08.408Z,11.79
2019-05-21T22:40:14.409Z,11.85
2019-05-21T22:45:19.810Z,11.89
2019-05-21T22:50:25.824Z,11.77
2019-05-21T22:55:31.041Z,11.77
2019-05-21T23:02:28.855Z,11.71
2019-05-21T23:07:34.124Z,11.73
2019-05-21T23:12:39.558Z,11.68
2019-05-21T23:17:45.191Z,11.81
2019-05-21T23:23:01.184Z,11.81
2019-05-21T23:28:08.227Z,11.88
2019-05-21T23:33:14.303Z,11.76
2019-05-21T23:38:20.348Z,11.84
2019-05-21T23:43:26.460Z,11.75
2019-05-21T23:48:32.101Z,11.77
2019-05-21T23:53:38.333Z,11.78
2019-05-21T23:58:43.973Z,11.81
